sensor_id;sensor_type;location;lat;lon;timestamp;P1;durP1;ratioP1;P2;durP2;ratioP2
22332;SDS011;11334;36.986;-121.936;2023-06-05T00:00:47;17.67;;;6.22;;
22332;SDS011;11334;36.986;-121.936;2023-06-05T00:03:13;18.10;;;6.30;;
22332;SDS011;11334;36.986;-121.936;2023-06-05T00:05:39;16.73;;;6.40;;
22332;SDS011;11334;36.986;-121.936;2023-06-05T00:08:06;19.02;;;6.60;;
22332;SDS011;11334;36.986;-121.936;2023-06-05T00:10:33;20.58;;;7.00;;
22332;SDS011;11334;36.986;-121.936;2023-06-05T00:12:59;25.17;;;7.85;;
22332;SDS011;11334;36.986;-121.936;2023-06-05T00:15:25;16.38;;;5.68;;
22332;SDS011;11334;36.986;-121.936;2023-06-05T00:17:52;18.52;;;6.85;;
22332;SDS011;11334;36.986;-121.936;2023-06-05T00:20:20;20.70;;;6.82;;
22332;SDS011;11334;36.986;-121.936;2023-06-05T00:22:46;20.58;;;7.50;;
22332;SDS011;11334;36.986;-121.936;2023-06-05T00:25:14;20.65;;;7.10;;
22332;SDS011;11334;36.986;-121.936;2023-06-05T00:27:40;22.70;;;6.85;;
22332;SDS011;11334;36.986;-121.936;2023-06-05T00:30:07;20.80;;;6.88;;
22332;SDS011;11334;36.986;-121.936;2023-06-05T00:32:38;20.13;;;6.72;;
22332;SDS011;11334;36.986;-121.936;2023-06-05T00:35:05;21.17;;;7.68;;
22332;SDS011;11334;36.986;-121.936;2023-06-05T00:37:32;19.48;;;6.80;;
22332;SDS011;11334;36.986;-121.936;2023-06-05T00:39:59;25.92;;;6.57;;
22332;SDS011;11334;36.986;-121.936;2023-06-05T00:42:26;18.35;;;6.50;;
22332;SDS011;11334;36.986;-121.936;2023-06-05T00:44:52;23.30;;;7.43;;
22332;SDS011;11334;36.986;-121.936;2023-06-05T00:47:18;19.98;;;6.65;;
22332;SDS011;11334;36.986;-121.936;2023-06-05T00:49:45;26.65;;;7.03;;
22332;SDS011;11334;36.986;-121.936;2023-06-05T00:52:11;22.27;;;7.18;;
22332;SDS011;11334;36.986;-121.936;2023-06-05T00:54:38;20.80;;;6.80;;
22332;SDS011;11334;36.986;-121.936;2023-06-05T00:57:07;22.33;;;7.05;;
22332;SDS011;11334;36.986;-121.936;2023-06-05T00:59:34;18.58;;;6.28;;
22332;SDS011;11334;36.986;-121.936;2023-06-05T01:02:02;22.05;;;6.95;;
22332;SDS011;11334;36.986;-121.936;2023-06-05T01:04:29;26.05;;;7.32;;
22332;SDS011;11334;36.986;-121.936;2023-06-05T01:06:58;21.50;;;7.07;;
22332;SDS011;11334;36.986;-121.936;2023-06-05T01:09:26;22.45;;;7.43;;
22332;SDS011;11334;36.986;-121.936;2023-06-05T01:14:37;27.73;;;6.85;;
22332;SDS011;11334;36.986;-121.936;2023-06-05T01:17:11;19.65;;;7.00;;
22332;SDS011;11334;36.986;-121.936;2023-06-05T01:19:38;21.17;;;6.10;;
22332;SDS011;11334;36.986;-121.936;2023-06-05T01:22:06;23.63;;;6.70;;
22332;SDS011;11334;36.986;-121.936;2023-06-05T01:24:32;24.52;;;6.30;;
22332;SDS011;11334;36.986;-121.936;2023-06-05T01:27:02;16.20;;;5.57;;
22332;SDS011;11334;36.986;-121.936;2023-06-05T01:32:49;24.05;;;6.97;;
22332;SDS011;11334;36.986;-121.936;2023-06-05T01:35:27;17.40;;;5.93;;
22332;SDS011;11334;36.986;-121.936;2023-06-05T01:37:58;18.80;;;6.35;;
22332;SDS011;11334;36.986;-121.936;2023-06-05T01:40:27;21.92;;;6.75;;
22332;SDS011;11334;36.986;-121.936;2023-06-05T01:42:55;19.60;;;6.70;;
22332;SDS011;11334;36.986;-121.936;2023-06-05T01:45:23;21.42;;;6.78;;
22332;SDS011;11334;36.986;-121.936;2023-06-05T01:47:53;19.60;;;5.65;;
22332;SDS011;11334;36.986;-121.936;2023-06-05T01:50:22;22.77;;;6.78;;
22332;SDS011;11334;36.986;-121.936;2023-06-05T01:52:48;22.83;;;6.88;;
22332;SDS011;11334;36.986;-121.936;2023-06-05T01:55:18;23.63;;;7.00;;
22332;SDS011;11334;36.986;-121.936;2023-06-05T01:57:49;22.95;;;8.05;;
22332;SDS011;11334;36.986;-121.936;2023-06-05T02:00:18;31.13;;;7.78;;
22332;SDS011;11334;36.986;-121.936;2023-06-05T02:02:45;26.55;;;7.85;;
22332;SDS011;11334;36.986;-121.936;2023-06-05T02:05:13;32.70;;;8.35;;
22332;SDS011;11334;36.986;-121.936;2023-06-05T02:07:41;26.88;;;7.15;;
22332;SDS011;11334;36.986;-121.936;2023-06-05T02:10:20;30.05;;;6.90;;
22332;SDS011;11334;36.986;-121.936;2023-06-05T02:12:47;27.92;;;7.70;;
22332;SDS011;11334;36.986;-121.936;2023-06-05T02:15:13;21.75;;;6.88;;
22332;SDS011;11334;36.986;-121.936;2023-06-05T02:17:40;27.85;;;7.68;;
22332;SDS011;11334;36.986;-121.936;2023-06-05T02:20:15;28.00;;;8.02;;
22332;SDS011;11334;36.986;-121.936;2023-06-05T02:22:42;31.13;;;7.40;;
22332;SDS011;11334;36.986;-121.936;2023-06-05T02:25:09;26.95;;;8.13;;
22332;SDS011;11334;36.986;-121.936;2023-06-05T02:27:36;34.17;;;9.27;;
22332;SDS011;11334;36.986;-121.936;2023-06-05T02:30:03;33.13;;;7.85;;
22332;SDS011;11334;36.986;-121.936;2023-06-05T02:32:29;31.23;;;8.32;;
22332;SDS011;11334;36.986;-121.936;2023-06-05T02:34:56;30.85;;;8.38;;
22332;SDS011;11334;36.986;-121.936;2023-06-05T02:37:24;28.05;;;7.93;;
22332;SDS011;11334;36.986;-121.936;2023-06-05T02:39:51;29.58;;;8.30;;
22332;SDS011;11334;36.986;-121.936;2023-06-05T02:42:18;36.28;;;9.38;;
22332;SDS011;11334;36.986;-121.936;2023-06-05T02:44:45;28.73;;;7.35;;
22332;SDS011;11334;36.986;-121.936;2023-06-05T02:47:12;28.38;;;7.68;;
22332;SDS011;11334;36.986;-121.936;2023-06-05T02:49:38;23.85;;;7.13;;
22332;SDS011;11334;36.986;-121.936;2023-06-05T02:52:05;26.67;;;7.93;;
22332;SDS011;11334;36.986;-121.936;2023-06-05T02:54:31;30.85;;;8.45;;
22332;SDS011;11334;36.986;-121.936;2023-06-05T02:56:57;24.52;;;7.60;;
22332;SDS011;11334;36.986;-121.936;2023-06-05T02:59:25;25.77;;;8.15;;
22332;SDS011;11334;36.986;-121.936;2023-06-05T03:01:52;23.48;;;7.25;;
22332;SDS011;11334;36.986;-121.936;2023-06-05T03:04:19;25.00;;;7.00;;
22332;SDS011;11334;36.986;-121.936;2023-06-05T03:06:49;26.20;;;7.65;;
22332;SDS011;11334;36.986;-121.936;2023-06-05T03:09:18;34.67;;;8.35;;
22332;SDS011;11334;36.986;-121.936;2023-06-05T03:11:44;26.63;;;7.57;;
22332;SDS011;11334;36.986;-121.936;2023-06-05T03:14:10;25.52;;;7.10;;
22332;SDS011;11334;36.986;-121.936;2023-06-05T03:16:37;37.20;;;8.07;;
22332;SDS011;11334;36.986;-121.936;2023-06-05T03:19:07;21.20;;;7.53;;
22332;SDS011;11334;36.986;-121.936;2023-06-05T03:21:35;19.08;;;6.57;;
22332;SDS011;11334;36.986;-121.936;2023-06-05T03:24:03;23.88;;;6.78;;
22332;SDS011;11334;36.986;-121.936;2023-06-05T03:26:32;25.17;;;7.65;;
22332;SDS011;11334;36.986;-121.936;2023-06-05T03:28:59;20.70;;;7.00;;
22332;SDS011;11334;36.986;-121.936;2023-06-05T03:31:25;30.75;;;8.20;;
22332;SDS011;11334;36.986;-121.936;2023-06-05T03:33:51;24.63;;;7.20;;
22332;SDS011;11334;36.986;-121.936;2023-06-05T03:36:17;23.23;;;6.65;;
22332;SDS011;11334;36.986;-121.936;2023-06-05T03:38:44;22.52;;;7.82;;
22332;SDS011;11334;36.986;-121.936;2023-06-05T03:41:11;23.45;;;7.43;;
22332;SDS011;11334;36.986;-121.936;2023-06-05T03:43:37;25.20;;;7.57;;
22332;SDS011;11334;36.986;-121.936;2023-06-05T03:46:03;29.40;;;8.65;;
22332;SDS011;11334;36.986;-121.936;2023-06-05T03:48:30;34.03;;;8.80;;
22332;SDS011;11334;36.986;-121.936;2023-06-05T03:50:57;32.28;;;8.70;;
22332;SDS011;11334;36.986;-121.936;2023-06-05T03:53:23;33.85;;;8.82;;
22332;SDS011;11334;36.986;-121.936;2023-06-05T03:55:49;27.20;;;9.52;;
22332;SDS011;11334;36.986;-121.936;2023-06-05T03:58:18;33.50;;;9.93;;
22332;SDS011;11334;36.986;-121.936;2023-06-05T04:00:46;33.85;;;8.98;;
22332;SDS011;11334;36.986;-121.936;2023-06-05T04:03:15;28.08;;;8.32;;
22332;SDS011;11334;36.986;-121.936;2023-06-05T04:05:43;37.55;;;9.48;;
22332;SDS011;11334;36.986;-121.936;2023-06-05T04:08:09;35.65;;;8.40;;
22332;SDS011;11334;36.986;-121.936;2023-06-05T04:10:36;25.33;;;7.30;;
22332;SDS011;11334;36.986;-121.936;2023-06-05T04:13:04;28.45;;;8.27;;
22332;SDS011;11334;36.986;-121.936;2023-06-05T04:15:31;28.83;;;7.32;;
22332;SDS011;11334;36.986;-121.936;2023-06-05T04:17:58;30.02;;;9.13;;
22332;SDS011;11334;36.986;-121.936;2023-06-05T04:20:25;36.33;;;8.93;;
22332;SDS011;11334;36.986;-121.936;2023-06-05T04:22:51;23.95;;;8.57;;
22332;SDS011;11334;36.986;-121.936;2023-06-05T04:25:17;28.75;;;7.55;;
22332;SDS011;11334;36.986;-121.936;2023-06-05T04:27:44;23.30;;;6.97;;
22332;SDS011;11334;36.986;-121.936;2023-06-05T04:30:13;23.27;;;7.53;;
22332;SDS011;11334;36.986;-121.936;2023-06-05T04:32:40;26.40;;;8.05;;
22332;SDS011;11334;36.986;-121.936;2023-06-05T04:35:07;30.90;;;7.97;;
22332;SDS011;11334;36.986;-121.936;2023-06-05T04:37:34;26.98;;;7.28;;
22332;SDS011;11334;36.986;-121.936;2023-06-05T04:40:01;27.65;;;7.97;;
22332;SDS011;11334;36.986;-121.936;2023-06-05T04:42:33;30.27;;;6.78;;
22332;SDS011;11334;36.986;-121.936;2023-06-05T04:45:01;32.78;;;6.70;;
22332;SDS011;11334;36.986;-121.936;2023-06-05T04:47:30;25.38;;;6.65;;
22332;SDS011;11334;36.986;-121.936;2023-06-05T04:50:01;24.20;;;7.30;;
22332;SDS011;11334;36.986;-121.936;2023-06-05T04:52:32;20.52;;;7.10;;
22332;SDS011;11334;36.986;-121.936;2023-06-05T04:55:00;26.27;;;7.22;;
22332;SDS011;11334;36.986;-121.936;2023-06-05T04:57:27;23.05;;;7.78;;
22332;SDS011;11334;36.986;-121.936;2023-06-05T04:59:54;27.63;;;7.82;;
22332;SDS011;11334;36.986;-121.936;2023-06-05T05:02:22;22.23;;;6.95;;
22332;SDS011;11334;36.986;-121.936;2023-06-05T05:04:49;24.02;;;7.15;;
22332;SDS011;11334;36.986;-121.936;2023-06-05T05:07:15;31.77;;;8.15;;
22332;SDS011;11334;36.986;-121.936;2023-06-05T05:09:42;27.70;;;7.45;;
22332;SDS011;11334;36.986;-121.936;2023-06-05T05:12:11;30.38;;;7.80;;
22332;SDS011;11334;36.986;-121.936;2023-06-05T05:14:37;24.77;;;6.63;;
22332;SDS011;11334;36.986;-121.936;2023-06-05T05:17:05;24.45;;;6.90;;
22332;SDS011;11334;36.986;-121.936;2023-06-05T05:19:32;25.30;;;6.97;;
22332;SDS011;11334;36.986;-121.936;2023-06-05T05:21:58;29.08;;;8.55;;
22332;SDS011;11334;36.986;-121.936;2023-06-05T05:24:24;23.40;;;7.28;;
22332;SDS011;11334;36.986;-121.936;2023-06-05T05:26:51;22.15;;;7.00;;
22332;SDS011;11334;36.986;-121.936;2023-06-05T05:29:17;28.95;;;7.22;;
22332;SDS011;11334;36.986;-121.936;2023-06-05T05:31:44;19.98;;;6.68;;
22332;SDS011;11334;36.986;-121.936;2023-06-05T05:34:10;29.40;;;7.90;;
22332;SDS011;11334;36.986;-121.936;2023-06-05T05:36:37;24.33;;;6.50;;
22332;SDS011;11334;36.986;-121.936;2023-06-05T05:39:03;30.15;;;6.97;;
22332;SDS011;11334;36.986;-121.936;2023-06-05T05:41:30;26.42;;;7.03;;
22332;SDS011;11334;36.986;-121.936;2023-06-05T05:43:56;24.15;;;6.97;;
22332;SDS011;11334;36.986;-121.936;2023-06-05T05:46:22;23.13;;;6.38;;
22332;SDS011;11334;36.986;-121.936;2023-06-05T05:48:48;22.85;;;7.30;;
22332;SDS011;11334;36.986;-121.936;2023-06-05T05:51:15;27.17;;;7.45;;
22332;SDS011;11334;36.986;-121.936;2023-06-05T05:53:41;20.00;;;6.57;;
22332;SDS011;11334;36.986;-121.936;2023-06-05T05:56:07;26.42;;;7.75;;
22332;SDS011;11334;36.986;-121.936;2023-06-05T05:58:33;23.10;;;7.82;;
22332;SDS011;11334;36.986;-121.936;2023-06-05T06:01:00;22.38;;;7.07;;
22332;SDS011;11334;36.986;-121.936;2023-06-05T06:03:26;17.58;;;6.57;;
22332;SDS011;11334;36.986;-121.936;2023-06-05T06:05:52;23.33;;;6.75;;
22332;SDS011;11334;36.986;-121.936;2023-06-05T06:08:19;21.27;;;7.20;;
22332;SDS011;11334;36.986;-121.936;2023-06-05T06:10:46;22.30;;;6.75;;
22332;SDS011;11334;36.986;-121.936;2023-06-05T06:13:12;16.98;;;6.57;;
22332;SDS011;11334;36.986;-121.936;2023-06-05T06:15:39;28.35;;;7.00;;
22332;SDS011;11334;36.986;-121.936;2023-06-05T06:18:06;24.35;;;6.80;;
22332;SDS011;11334;36.986;-121.936;2023-06-05T06:20:32;22.88;;;6.65;;
22332;SDS011;11334;36.986;-121.936;2023-06-05T06:22:59;19.90;;;6.22;;
22332;SDS011;11334;36.986;-121.936;2023-06-05T06:25:28;17.23;;;5.78;;
22332;SDS011;11334;36.986;-121.936;2023-06-05T06:27:57;18.10;;;6.38;;
22332;SDS011;11334;36.986;-121.936;2023-06-05T06:30:25;21.27;;;6.00;;
22332;SDS011;11334;36.986;-121.936;2023-06-05T06:32:53;24.35;;;7.57;;
22332;SDS011;11334;36.986;-121.936;2023-06-05T06:35:23;19.85;;;6.05;;
22332;SDS011;11334;36.986;-121.936;2023-06-05T06:37:52;26.35;;;7.90;;
22332;SDS011;11334;36.986;-121.936;2023-06-05T06:40:22;26.88;;;6.95;;
22332;SDS011;11334;36.986;-121.936;2023-06-05T06:42:49;23.38;;;6.00;;
22332;SDS011;11334;36.986;-121.936;2023-06-05T06:45:18;23.67;;;7.45;;
22332;SDS011;11334;36.986;-121.936;2023-06-05T06:47:45;21.73;;;6.10;;
22332;SDS011;11334;36.986;-121.936;2023-06-05T06:50:12;25.00;;;7.55;;
22332;SDS011;11334;36.986;-121.936;2023-06-05T06:52:39;24.58;;;7.22;;
22332;SDS011;11334;36.986;-121.936;2023-06-05T06:55:06;35.03;;;8.50;;
22332;SDS011;11334;36.986;-121.936;2023-06-05T06:57:32;23.73;;;7.45;;
22332;SDS011;11334;36.986;-121.936;2023-06-05T06:59:59;20.63;;;6.90;;
22332;SDS011;11334;36.986;-121.936;2023-06-05T07:02:25;26.42;;;6.50;;
22332;SDS011;11334;36.986;-121.936;2023-06-05T07:04:51;24.75;;;7.25;;
22332;SDS011;11334;36.986;-121.936;2023-06-05T07:07:20;18.92;;;6.45;;
22332;SDS011;11334;36.986;-121.936;2023-06-05T07:09:49;18.77;;;6.15;;
22332;SDS011;11334;36.986;-121.936;2023-06-05T07:12:16;22.70;;;6.60;;
22332;SDS011;11334;36.986;-121.936;2023-06-05T07:14:44;27.42;;;6.32;;
22332;SDS011;11334;36.986;-121.936;2023-06-05T07:17:11;34.20;;;8.98;;
22332;SDS011;11334;36.986;-121.936;2023-06-05T07:19:37;24.95;;;6.78;;
22332;SDS011;11334;36.986;-121.936;2023-06-05T07:22:04;23.65;;;6.57;;
22332;SDS011;11334;36.986;-121.936;2023-06-05T07:24:31;23.75;;;6.53;;
22332;SDS011;11334;36.986;-121.936;2023-06-05T07:27:00;23.65;;;6.78;;
22332;SDS011;11334;36.986;-121.936;2023-06-05T07:29:28;26.63;;;7.05;;
22332;SDS011;11334;36.986;-121.936;2023-06-05T07:31:55;18.17;;;6.57;;
22332;SDS011;11334;36.986;-121.936;2023-06-05T07:34:23;21.08;;;6.40;;
22332;SDS011;11334;36.986;-121.936;2023-06-05T07:36:50;23.35;;;6.97;;
22332;SDS011;11334;36.986;-121.936;2023-06-05T07:39:20;20.20;;;6.30;;
22332;SDS011;11334;36.986;-121.936;2023-06-05T07:41:47;21.08;;;6.32;;
22332;SDS011;11334;36.986;-121.936;2023-06-05T07:44:15;23.60;;;7.22;;
22332;SDS011;11334;36.986;-121.936;2023-06-05T07:46:44;21.00;;;5.93;;
22332;SDS011;11334;36.986;-121.936;2023-06-05T07:49:11;21.92;;;7.03;;
22332;SDS011;11334;36.986;-121.936;2023-06-05T07:51:38;21.45;;;5.90;;
22332;SDS011;11334;36.986;-121.936;2023-06-05T07:54:08;21.73;;;5.60;;
22332;SDS011;11334;36.986;-121.936;2023-06-05T07:56:36;20.42;;;5.82;;
22332;SDS011;11334;36.986;-121.936;2023-06-05T07:59:03;20.73;;;6.43;;
22332;SDS011;11334;36.986;-121.936;2023-06-05T08:01:31;19.15;;;5.78;;
22332;SDS011;11334;36.986;-121.936;2023-06-05T08:04:04;22.45;;;6.13;;
22332;SDS011;11334;36.986;-121.936;2023-06-05T08:06:31;20.83;;;5.57;;
22332;SDS011;11334;36.986;-121.936;2023-06-05T08:08:58;15.98;;;4.95;;
22332;SDS011;11334;36.986;-121.936;2023-06-05T08:11:25;15.30;;;5.15;;
22332;SDS011;11334;36.986;-121.936;2023-06-05T08:13:52;20.92;;;5.20;;
22332;SDS011;11334;36.986;-121.936;2023-06-05T08:16:18;17.52;;;5.30;;
22332;SDS011;11334;36.986;-121.936;2023-06-05T08:18:44;21.58;;;5.63;;
22332;SDS011;11334;36.986;-121.936;2023-06-05T08:21:11;19.10;;;5.40;;
22332;SDS011;11334;36.986;-121.936;2023-06-05T08:23:38;25.80;;;5.72;;
22332;SDS011;11334;36.986;-121.936;2023-06-05T08:26:04;17.02;;;5.47;;
22332;SDS011;11334;36.986;-121.936;2023-06-05T08:28:39;19.13;;;5.55;;
22332;SDS011;11334;36.986;-121.936;2023-06-05T08:31:06;16.15;;;5.95;;
22332;SDS011;11334;36.986;-121.936;2023-06-05T08:33:36;15.15;;;5.35;;
22332;SDS011;11334;36.986;-121.936;2023-06-05T08:36:03;14.82;;;4.47;;
22332;SDS011;11334;36.986;-121.936;2023-06-05T08:38:31;14.70;;;4.95;;
22332;SDS011;11334;36.986;-121.936;2023-06-05T08:41:03;13.70;;;4.78;;
22332;SDS011;11334;36.986;-121.936;2023-06-05T08:43:42;11.88;;;4.07;;
22332;SDS011;11334;36.986;-121.936;2023-06-05T08:46:10;12.68;;;4.97;;
22332;SDS011;11334;36.986;-121.936;2023-06-05T08:48:46;16.17;;;5.07;;
22332;SDS011;11334;36.986;-121.936;2023-06-05T08:51:13;11.25;;;3.90;;
22332;SDS011;11334;36.986;-121.936;2023-06-05T08:53:41;14.93;;;4.68;;
22332;SDS011;11334;36.986;-121.936;2023-06-05T08:56:12;12.35;;;4.38;;
22332;SDS011;11334;36.986;-121.936;2023-06-05T08:58:39;12.73;;;3.38;;
22332;SDS011;11334;36.986;-121.936;2023-06-05T09:01:09;15.70;;;4.60;;
22332;SDS011;11334;36.986;-121.936;2023-06-05T09:03:35;11.95;;;3.47;;
22332;SDS011;11334;36.986;-121.936;2023-06-05T09:06:02;11.63;;;3.80;;
22332;SDS011;11334;36.986;-121.936;2023-06-05T09:08:30;21.42;;;5.47;;
22332;SDS011;11334;36.986;-121.936;2023-06-05T09:13:48;18.70;;;5.05;;
22332;SDS011;11334;36.986;-121.936;2023-06-05T09:16:18;16.88;;;4.60;;
22332;SDS011;11334;36.986;-121.936;2023-06-05T09:18:55;10.60;;;4.38;;
22332;SDS011;11334;36.986;-121.936;2023-06-05T09:21:23;15.75;;;4.78;;
22332;SDS011;11334;36.986;-121.936;2023-06-05T09:24:11;11.75;;;3.85;;
22332;SDS011;11334;36.986;-121.936;2023-06-05T09:26:58;12.80;;;4.60;;
22332;SDS011;11334;36.986;-121.936;2023-06-05T09:29:27;14.05;;;4.38;;
22332;SDS011;11334;36.986;-121.936;2023-06-05T09:31:57;13.73;;;4.10;;
22332;SDS011;11334;36.986;-121.936;2023-06-05T09:34:25;18.17;;;5.25;;
22332;SDS011;11334;36.986;-121.936;2023-06-05T09:36:55;12.93;;;3.90;;
22332;SDS011;11334;36.986;-121.936;2023-06-05T09:39:23;17.85;;;4.95;;
22332;SDS011;11334;36.986;-121.936;2023-06-05T09:41:51;13.77;;;4.85;;
22332;SDS011;11334;36.986;-121.936;2023-06-05T09:44:19;17.25;;;5.00;;
22332;SDS011;11334;36.986;-121.936;2023-06-05T09:51:58;16.25;;;4.35;;
22332;SDS011;11334;36.986;-121.936;2023-06-05T09:54:27;13.55;;;3.97;;
22332;SDS011;11334;36.986;-121.936;2023-06-05T09:57:02;17.13;;;4.95;;
22332;SDS011;11334;36.986;-121.936;2023-06-05T09:59:30;13.45;;;4.45;;
22332;SDS011;11334;36.986;-121.936;2023-06-05T10:02:02;17.50;;;4.63;;
22332;SDS011;11334;36.986;-121.936;2023-06-05T10:04:52;11.73;;;4.22;;
22332;SDS011;11334;36.986;-121.936;2023-06-05T10:07:23;14.90;;;3.85;;
22332;SDS011;11334;36.986;-121.936;2023-06-05T10:09:50;14.43;;;3.97;;
22332;SDS011;11334;36.986;-121.936;2023-06-05T10:12:16;12.05;;;3.58;;
22332;SDS011;11334;36.986;-121.936;2023-06-05T10:14:43;14.50;;;3.97;;
22332;SDS011;11334;36.986;-121.936;2023-06-05T10:17:11;15.38;;;3.95;;
22332;SDS011;11334;36.986;-121.936;2023-06-05T10:19:40;18.45;;;4.28;;
22332;SDS011;11334;36.986;-121.936;2023-06-05T10:22:09;22.40;;;5.15;;
22332;SDS011;11334;36.986;-121.936;2023-06-05T10:24:37;15.35;;;4.95;;
22332;SDS011;11334;36.986;-121.936;2023-06-05T10:40:44;14.25;;;3.67;;
22332;SDS011;11334;36.986;-121.936;2023-06-05T10:43:28;15.70;;;4.20;;
22332;SDS011;11334;36.986;-121.936;2023-06-05T10:45:56;12.85;;;4.13;;
22332;SDS011;11334;36.986;-121.936;2023-06-05T10:51:49;13.45;;;4.30;;
22332;SDS011;11334;36.986;-121.936;2023-06-05T10:59:21;18.73;;;4.45;;
22332;SDS011;11334;36.986;-121.936;2023-06-05T11:07:18;14.90;;;4.53;;
22332;SDS011;11334;36.986;-121.936;2023-06-05T11:15:08;11.60;;;3.67;;
22332;SDS011;11334;36.986;-121.936;2023-06-05T11:17:35;14.98;;;4.20;;
22332;SDS011;11334;36.986;-121.936;2023-06-05T11:20:04;9.25;;;3.88;;
22332;SDS011;11334;36.986;-121.936;2023-06-05T11:27:47;10.48;;;3.28;;
22332;SDS011;11334;36.986;-121.936;2023-06-05T11:30:19;12.40;;;3.50;;
22332;SDS011;11334;36.986;-121.936;2023-06-05T11:32:47;12.10;;;3.33;;
22332;SDS011;11334;36.986;-121.936;2023-06-05T11:35:15;13.45;;;3.20;;
22332;SDS011;11334;36.986;-121.936;2023-06-05T11:37:42;11.68;;;3.45;;
22332;SDS011;11334;36.986;-121.936;2023-06-05T11:40:08;15.80;;;3.92;;
22332;SDS011;11334;36.986;-121.936;2023-06-05T11:42:35;8.40;;;3.22;;
22332;SDS011;11334;36.986;-121.936;2023-06-05T11:45:09;11.55;;;3.97;;
22332;SDS011;11334;36.986;-121.936;2023-06-05T11:47:36;6.90;;;2.75;;
22332;SDS011;11334;36.986;-121.936;2023-06-05T11:50:12;5.97;;;3.10;;
22332;SDS011;11334;36.986;-121.936;2023-06-05T11:52:42;10.63;;;3.17;;
22332;SDS011;11334;36.986;-121.936;2023-06-05T11:57:44;11.68;;;3.65;;
22332;SDS011;11334;36.986;-121.936;2023-06-05T12:00:15;10.23;;;3.00;;
22332;SDS011;11334;36.986;-121.936;2023-06-05T12:02:47;9.80;;;3.55;;
22332;SDS011;11334;36.986;-121.936;2023-06-05T12:05:14;12.18;;;3.42;;
22332;SDS011;11334;36.986;-121.936;2023-06-05T12:07:43;7.40;;;2.83;;
22332;SDS011;11334;36.986;-121.936;2023-06-05T12:10:10;6.25;;;2.90;;
22332;SDS011;11334;36.986;-121.936;2023-06-05T12:12:52;9.98;;;3.45;;
22332;SDS011;11334;36.986;-121.936;2023-06-05T12:15:19;12.52;;;2.85;;
22332;SDS011;11334;36.986;-121.936;2023-06-05T12:17:50;9.45;;;3.20;;
22332;SDS011;11334;36.986;-121.936;2023-06-05T12:20:17;8.73;;;2.60;;
22332;SDS011;11334;36.986;-121.936;2023-06-05T12:22:45;8.32;;;2.70;;
22332;SDS011;11334;36.986;-121.936;2023-06-05T12:25:15;6.85;;;2.85;;
22332;SDS011;11334;36.986;-121.936;2023-06-05T12:27:45;7.70;;;3.25;;
22332;SDS011;11334;36.986;-121.936;2023-06-05T12:30:12;10.07;;;2.45;;
22332;SDS011;11334;36.986;-121.936;2023-06-05T12:32:40;8.18;;;2.78;;
22332;SDS011;11334;36.986;-121.936;2023-06-05T12:35:21;8.20;;;2.80;;
22332;SDS011;11334;36.986;-121.936;2023-06-05T12:37:49;8.23;;;2.30;;
22332;SDS011;11334;36.986;-121.936;2023-06-05T12:40:16;10.23;;;2.85;;
22332;SDS011;11334;36.986;-121.936;2023-06-05T12:42:47;7.72;;;2.90;;
22332;SDS011;11334;36.986;-121.936;2023-06-05T12:45:14;9.43;;;3.00;;
22332;SDS011;11334;36.986;-121.936;2023-06-05T12:47:41;5.65;;;2.65;;
22332;SDS011;11334;36.986;-121.936;2023-06-05T12:50:09;10.95;;;2.72;;
22332;SDS011;11334;36.986;-121.936;2023-06-05T12:52:37;8.68;;;2.80;;
22332;SDS011;11334;36.986;-121.936;2023-06-05T12:55:04;10.95;;;2.97;;
22332;SDS011;11334;36.986;-121.936;2023-06-05T12:57:32;10.55;;;3.25;;
22332;SDS011;11334;36.986;-121.936;2023-06-05T13:00:00;10.85;;;3.15;;
22332;SDS011;11334;36.986;-121.936;2023-06-05T13:02:42;8.50;;;2.85;;
22332;SDS011;11334;36.986;-121.936;2023-06-05T13:05:16;10.45;;;3.50;;
22332;SDS011;11334;36.986;-121.936;2023-06-05T13:07:43;9.43;;;4.22;;
22332;SDS011;11334;36.986;-121.936;2023-06-05T13:10:10;15.23;;;3.15;;
22332;SDS011;11334;36.986;-121.936;2023-06-05T13:12:36;8.82;;;3.00;;
22332;SDS011;11334;36.986;-121.936;2023-06-05T13:15:03;10.90;;;3.22;;
22332;SDS011;11334;36.986;-121.936;2023-06-05T13:17:32;8.32;;;2.63;;
22332;SDS011;11334;36.986;-121.936;2023-06-05T13:20:00;8.15;;;3.17;;
22332;SDS011;11334;36.986;-121.936;2023-06-05T13:22:32;7.57;;;2.38;;
22332;SDS011;11334;36.986;-121.936;2023-06-05T13:24:58;7.05;;;2.70;;
22332;SDS011;11334;36.986;-121.936;2023-06-05T13:27:24;7.55;;;2.08;;
22332;SDS011;11334;36.986;-121.936;2023-06-05T13:29:50;4.43;;;2.53;;
22332;SDS011;11334;36.986;-121.936;2023-06-05T13:32:16;7.82;;;2.05;;
22332;SDS011;11334;36.986;-121.936;2023-06-05T13:34:43;3.80;;;1.90;;
22332;SDS011;11334;36.986;-121.936;2023-06-05T13:37:09;6.43;;;1.92;;
22332;SDS011;11334;36.986;-121.936;2023-06-05T13:39:36;3.42;;;1.55;;
22332;SDS011;11334;36.986;-121.936;2023-06-05T13:42:02;4.43;;;2.00;;
22332;SDS011;11334;36.986;-121.936;2023-06-05T13:44:31;6.22;;;1.55;;
22332;SDS011;11334;36.986;-121.936;2023-06-05T13:46:57;5.95;;;1.70;;
22332;SDS011;11334;36.986;-121.936;2023-06-05T13:49:24;4.15;;;1.70;;
22332;SDS011;11334;36.986;-121.936;2023-06-05T13:51:51;3.63;;;1.73;;
22332;SDS011;11334;36.986;-121.936;2023-06-05T13:54:17;3.85;;;2.08;;
22332;SDS011;11334;36.986;-121.936;2023-06-05T13:56:43;4.80;;;1.90;;
22332;SDS011;11334;36.986;-121.936;2023-06-05T13:59:09;5.75;;;1.70;;
22332;SDS011;11334;36.986;-121.936;2023-06-05T14:01:35;5.15;;;2.15;;
22332;SDS011;11334;36.986;-121.936;2023-06-05T14:04:02;6.30;;;1.80;;
22332;SDS011;11334;36.986;-121.936;2023-06-05T14:06:28;3.58;;;1.60;;
22332;SDS011;11334;36.986;-121.936;2023-06-05T14:08:54;5.68;;;1.77;;
22332;SDS011;11334;36.986;-121.936;2023-06-05T14:11:20;7.65;;;1.95;;
22332;SDS011;11334;36.986;-121.936;2023-06-05T14:13:47;4.95;;;2.08;;
22332;SDS011;11334;36.986;-121.936;2023-06-05T14:16:13;4.68;;;1.90;;
22332;SDS011;11334;36.986;-121.936;2023-06-05T14:18:39;3.53;;;2.10;;
22332;SDS011;11334;36.986;-121.936;2023-06-05T14:21:06;6.55;;;2.05;;
22332;SDS011;11334;36.986;-121.936;2023-06-05T14:23:32;6.38;;;1.77;;
22332;SDS011;11334;36.986;-121.936;2023-06-05T14:25:58;8.13;;;2.08;;
22332;SDS011;11334;36.986;-121.936;2023-06-05T14:28:24;6.88;;;2.10;;
22332;SDS011;11334;36.986;-121.936;2023-06-05T14:30:51;6.25;;;1.60;;
22332;SDS011;11334;36.986;-121.936;2023-06-05T14:33:17;7.82;;;2.17;;
22332;SDS011;11334;36.986;-121.936;2023-06-05T14:35:44;6.47;;;2.33;;
22332;SDS011;11334;36.986;-121.936;2023-06-05T14:38:10;4.10;;;2.00;;
22332;SDS011;11334;36.986;-121.936;2023-06-05T14:40:38;5.82;;;1.52;;
22332;SDS011;11334;36.986;-121.936;2023-06-05T14:43:04;3.17;;;1.83;;
22332;SDS011;11334;36.986;-121.936;2023-06-05T14:45:31;7.25;;;1.80;;
22332;SDS011;11334;36.986;-121.936;2023-06-05T14:47:57;4.13;;;1.65;;
22332;SDS011;11334;36.986;-121.936;2023-06-05T14:50:24;4.68;;;1.77;;
22332;SDS011;11334;36.986;-121.936;2023-06-05T14:52:50;3.20;;;1.45;;
22332;SDS011;11334;36.986;-121.936;2023-06-05T14:55:16;5.55;;;1.63;;
22332;SDS011;11334;36.986;-121.936;2023-06-05T14:57:42;4.22;;;1.85;;